Ashton, Missouri
Current Conditions -  °F | °C
As of 11:15 AM on Thursday 27 Nov 2014 (Local Time) from KEOK Reporting Station
Broken Clouds Broken Clouds  
Wind Chill: 12°   Ceiling: 2000
Heat Index: 23°   Visibility: 10mi
Dew Point: 16°   Wind: 10mph
Humidity: 74%   Direction: 300°WNW
Pressure: 30.49"   Gusts: 18mph
Location:  40.513°N, 91.8882°W
Report Text: KEOK 271715Z AUTO 30009G16KT 10SM BKN020 BKN025 M05/M09 A3049 RMK AO2
Loading
Personal Weather Stations






























Interactive Weather Map New forecast layout! Learn more

10-Day Weather Forecast

Advertisements
Track Severe Weather on mobile